createdAt,value
2017-10-06T00:00:06.437Z,79.38
2017-10-06T00:02:33.938Z,79.57
2017-10-06T00:05:01.409Z,79.24
2017-10-06T00:07:28.872Z,79.41
2017-10-06T00:09:56.428Z,79.49
2017-10-06T00:12:23.973Z,79.88
2017-10-06T00:14:51.704Z,79.55
2017-10-06T00:17:19.158Z,79.47
2017-10-06T00:19:46.651Z,79.60
2017-10-06T00:22:14.134Z,79.74
2017-10-06T00:24:41.677Z,79.78
2017-10-06T00:27:09.143Z,80.06
2017-10-06T00:29:36.685Z,80.30
2017-10-06T00:32:04.450Z,80.35
2017-10-06T00:34:31.902Z,80.47
2017-10-06T00:36:59.463Z,80.89
2017-10-06T00:39:26.967Z,81.12
2017-10-06T00:41:54.444Z,80.88
2017-10-06T00:44:21.931Z,80.99
2017-10-06T00:46:49.385Z,81.18
2017-10-06T00:49:16.875Z,81.34
2017-10-06T00:51:44.419Z,81.55
2017-10-06T00:54:11.893Z,81.32
2017-10-06T00:56:39.390Z,81.37
2017-10-06T00:59:06.846Z,81.48
2017-10-06T01:01:34.309Z,81.46
2017-10-06T01:04:01.797Z,81.65
2017-10-06T01:06:29.252Z,81.64
2017-10-06T01:08:56.819Z,81.58
2017-10-06T01:11:24.313Z,81.92
2017-10-06T01:13:51.779Z,81.86
2017-10-06T01:16:19.247Z,81.61
2017-10-06T01:18:46.722Z,81.87
2017-10-06T01:21:14.189Z,81.88
2017-10-06T01:23:41.761Z,81.62
2017-10-06T01:26:09.226Z,81.80
2017-10-06T01:28:36.754Z,81.98
2017-10-06T01:31:04.238Z,81.95
2017-10-06T01:33:31.719Z,82.00
2017-10-06T01:35:59.566Z,82.03
2017-10-06T01:38:27.013Z,82.22
2017-10-06T01:40:54.473Z,82.09
2017-10-06T01:43:21.935Z,82.23
2017-10-06T01:45:49.386Z,82.35
2017-10-06T01:48:16.876Z,82.61
2017-10-06T01:50:44.342Z,82.67
2017-10-06T01:53:12.178Z,82.71
2017-10-06T01:55:39.649Z,82.85
2017-10-06T01:58:07.127Z,83.38
2017-10-06T02:00:34.600Z,83.34
2017-10-06T02:03:02.062Z,83.32
2017-10-06T02:05:29.541Z,83.43
2017-10-06T02:07:56.999Z,83.58
2017-10-06T02:10:24.539Z,83.52
2017-10-06T02:12:51.992Z,83.55
2017-10-06T02:15:19.494Z,83.46
2017-10-06T02:17:47.051Z,83.61
2017-10-06T02:20:14.617Z,83.42
2017-10-06T02:22:42.091Z,83.19
2017-10-06T02:25:09.552Z,83.13
2017-10-06T02:27:37.056Z,83.02
2017-10-06T02:30:04.524Z,82.88
2017-10-06T02:32:32.278Z,82.89
2017-10-06T02:34:59.739Z,82.95
2017-10-06T02:37:27.199Z,82.66
2017-10-06T02:39:54.678Z,82.80
2017-10-06T02:42:22.141Z,82.85
2017-10-06T02:44:49.637Z,82.60
2017-10-06T02:47:17.098Z,82.66
2017-10-06T02:49:44.555Z,82.58
2017-10-06T02:52:12.023Z,82.36
2017-10-06T02:54:39.488Z,82.57
2017-10-06T02:57:06.988Z,82.64
2017-10-06T02:59:34.439Z,82.64
2017-10-06T03:02:01.942Z,82.70
2017-10-06T03:04:29.476Z,82.57
2017-10-06T03:06:56.920Z,82.45
2017-10-06T03:09:24.466Z,82.39
2017-10-06T03:11:51.923Z,82.68
2017-10-06T03:14:19.383Z,82.91
2017-10-06T03:16:46.873Z,82.50
2017-10-06T03:19:14.321Z,82.38
2017-10-06T03:21:41.802Z,82.56
2017-10-06T03:24:09.256Z,82.57
2017-10-06T03:26:37.082Z,82.60
2017-10-06T03:29:04.543Z,82.53
2017-10-06T03:31:32.030Z,82.67
2017-10-06T03:33:59.533Z,82.66
2017-10-06T03:36:27.014Z,82.64
2017-10-06T03:38:54.771Z,82.42
2017-10-06T03:41:22.336Z,82.61
2017-10-06T03:43:49.790Z,82.47
2017-10-06T03:46:17.273Z,82.54
2017-10-06T03:48:44.739Z,82.60
2017-10-06T03:51:12.218Z,82.75
2017-10-06T03:53:39.669Z,82.82
2017-10-06T03:56:07.154Z,83.03
2017-10-06T03:58:34.599Z,82.82
2017-10-06T04:01:02.067Z,82.74
2017-10-06T04:03:29.537Z,82.81
2017-10-06T04:05:57.027Z,82.80
2017-10-06T04:08:24.553Z,82.98
2017-10-06T04:10:52.018Z,82.88
2017-10-06T04:13:19.782Z,83.03
2017-10-06T04:15:47.253Z,82.74
2017-10-06T04:18:14.715Z,82.85
2017-10-06T04:20:42.185Z,82.63
2017-10-06T04:23:09.643Z,82.87
2017-10-06T04:25:37.128Z,82.91
2017-10-06T04:28:04.585Z,82.96
2017-10-06T04:30:32.330Z,83.07
2017-10-06T04:32:59.860Z,83.21
2017-10-06T04:35:27.325Z,83.38
2017-10-06T04:37:54.889Z,83.53
2017-10-06T04:40:22.388Z,83.44
2017-10-06T04:42:49.860Z,83.44
2017-10-06T04:45:17.309Z,83.68
2017-10-06T04:47:44.819Z,83.53
2017-10-06T04:50:12.299Z,83.59
2017-10-06T04:52:39.763Z,83.53
2017-10-06T04:55:07.298Z,83.53
2017-10-06T04:57:34.799Z,83.52
2017-10-06T05:00:02.268Z,83.52
2017-10-06T05:02:29.758Z,83.49
2017-10-06T05:04:57.510Z,83.61
2017-10-06T05:07:24.993Z,83.48
2017-10-06T05:09:52.458Z,83.47
2017-10-06T05:12:19.961Z,83.42
2017-10-06T05:14:47.425Z,83.53
2017-10-06T05:17:14.903Z,83.40
2017-10-06T05:19:42.362Z,83.29
2017-10-06T05:22:10.131Z,83.42
2017-10-06T05:24:37.589Z,83.82
2017-10-06T05:27:05.049Z,83.70
2017-10-06T05:29:32.538Z,83.62
2017-10-06T05:32:00.003Z,83.72
2017-10-06T05:34:27.475Z,83.71
2017-10-06T05:36:55.729Z,83.74
2017-10-06T05:39:23.245Z,83.70
2017-10-06T05:41:50.706Z,83.49
2017-10-06T05:44:18.512Z,83.51
2017-10-06T05:46:46.020Z,83.51
2017-10-06T05:49:13.610Z,83.27
2017-10-06T05:51:51.042Z,83.32
2017-10-06T05:54:18.496Z,83.55
2017-10-06T05:56:45.994Z,83.34
2017-10-06T05:59:13.503Z,83.54
2017-10-06T06:01:41.010Z,83.70
2017-10-06T06:04:08.779Z,83.74
2017-10-06T06:06:36.297Z,83.79
2017-10-06T06:09:03.786Z,83.52
2017-10-06T06:11:31.633Z,83.83
2017-10-06T06:13:59.096Z,83.03
2017-10-06T06:16:26.620Z,82.94
2017-10-06T06:18:54.110Z,82.97
2017-10-06T06:21:21.578Z,83.07
2017-10-06T06:23:49.046Z,82.99
2017-10-06T06:26:16.523Z,83.15
2017-10-06T06:28:44.108Z,83.05
2017-10-06T06:31:11.620Z,83.06
2017-10-06T06:33:39.110Z,82.90
2017-10-06T06:36:06.592Z,82.80
2017-10-06T06:38:34.056Z,82.94
2017-10-06T06:41:01.554Z,82.55
2017-10-06T06:43:29.050Z,82.69
2017-10-06T06:45:56.865Z,82.47
2017-10-06T06:48:24.336Z,82.42
2017-10-06T06:50:51.823Z,82.58
2017-10-06T06:53:19.303Z,82.83
2017-10-06T06:55:46.923Z,82.33
2017-10-06T06:58:14.801Z,82.35
2017-10-06T07:00:42.284Z,82.60
2017-10-06T07:03:09.777Z,82.65
2017-10-06T07:05:37.249Z,82.64
2017-10-06T07:08:04.736Z,82.57
2017-10-06T07:10:32.207Z,82.55
2017-10-06T07:12:59.687Z,82.31
2017-10-06T07:15:27.174Z,82.28
2017-10-06T07:17:54.646Z,81.89
2017-10-06T07:20:22.194Z,81.85
2017-10-06T07:22:49.849Z,81.85
2017-10-06T07:25:17.330Z,81.50
2017-10-06T07:27:44.836Z,81.57
2017-10-06T07:30:12.325Z,81.56
2017-10-06T07:32:40.092Z,81.65
2017-10-06T07:35:07.561Z,81.54
2017-10-06T07:37:35.032Z,81.09
2017-10-06T07:40:02.523Z,81.25
2017-10-06T07:42:30.024Z,80.97
2017-10-06T07:44:57.543Z,81.00
2017-10-06T07:47:25.063Z,80.74
2017-10-06T07:49:52.524Z,80.66
2017-10-06T07:52:20.084Z,80.76
2017-10-06T07:54:47.539Z,81.22
2017-10-06T07:57:15.015Z,81.53
2017-10-06T07:59:42.527Z,80.38
2017-10-06T08:02:10.141Z,80.90
2017-10-06T08:04:37.606Z,80.76
2017-10-06T08:07:05.067Z,80.71
2017-10-06T08:09:32.547Z,80.47
2017-10-06T08:12:00.114Z,80.88
2017-10-06T08:14:27.635Z,80.87
2017-10-06T08:16:55.164Z,80.87
2017-10-06T08:19:22.625Z,81.66
2017-10-06T08:21:50.164Z,82.17
2017-10-06T08:24:17.681Z,83.42
2017-10-06T08:26:45.207Z,83.42
2017-10-06T08:29:12.677Z,83.66
2017-10-06T08:31:40.509Z,84.09
2017-10-06T08:34:08.129Z,84.13
2017-10-06T08:36:35.594Z,84.05
2017-10-06T08:39:03.109Z,83.64
2017-10-06T08:41:30.931Z,84.56
2017-10-06T08:43:58.481Z,84.10
2017-10-06T08:46:26.105Z,83.83
2017-10-06T08:48:53.582Z,84.33
2017-10-06T08:51:21.063Z,83.55
2017-10-06T08:53:48.539Z,82.81
2017-10-06T08:56:16.137Z,83.62
2017-10-06T08:58:43.639Z,82.86
2017-10-06T09:01:11.248Z,82.47
2017-10-06T09:03:38.715Z,82.24
2017-10-06T09:06:06.545Z,81.50
2017-10-06T09:08:34.016Z,80.24
2017-10-06T09:11:01.512Z,79.85
2017-10-06T09:13:29.138Z,79.00
2017-10-06T09:15:56.826Z,78.98
2017-10-06T09:18:24.349Z,79.22
2017-10-06T09:20:51.809Z,79.64
2017-10-06T09:23:19.273Z,80.21
2017-10-06T09:25:46.754Z,79.22
2017-10-06T09:28:14.297Z,78.44
2017-10-06T09:30:41.826Z,78.14
2017-10-06T09:33:09.300Z,77.33
2017-10-06T09:35:36.771Z,76.24
2017-10-06T09:38:04.350Z,76.52
2017-10-06T09:40:31.890Z,76.97
2017-10-06T09:42:59.373Z,76.58
2017-10-06T09:45:26.833Z,77.94
2017-10-06T09:47:54.289Z,76.86
2017-10-06T09:50:21.843Z,76.74
2017-10-06T09:52:49.316Z,76.09
2017-10-06T09:55:16.775Z,76.21
2017-10-06T09:57:44.236Z,75.75
2017-10-06T10:00:11.732Z,75.47
2017-10-06T10:02:39.192Z,76.24
2017-10-06T10:05:06.677Z,76.14
2017-10-06T10:07:34.171Z,75.27
2017-10-06T10:10:01.633Z,75.15
2017-10-06T10:12:29.121Z,75.93
2017-10-06T10:14:56.605Z,75.61
2017-10-06T10:17:24.103Z,74.70
2017-10-06T10:19:51.558Z,74.54
2017-10-06T10:22:19.022Z,74.32
2017-10-06T10:24:46.512Z,73.88
2017-10-06T10:27:13.999Z,72.83
2017-10-06T10:29:41.493Z,71.85
2017-10-06T10:32:09.045Z,71.64
2017-10-06T10:34:36.525Z,70.96
2017-10-06T10:39:30.840Z,69.23
2017-10-06T10:41:58.395Z,67.87
2017-10-06T10:44:25.865Z,67.57
2017-10-06T10:46:53.552Z,67.85
2017-10-06T10:49:21.013Z,65.48
2017-10-06T10:51:48.476Z,66.12
2017-10-06T10:54:16.215Z,64.28
2017-10-06T10:56:43.692Z,64.86
2017-10-06T10:59:11.177Z,66.34
2017-10-06T11:01:38.660Z,63.01
2017-10-06T11:04:06.139Z,63.84
2017-10-06T11:06:33.626Z,63.73
2017-10-06T11:09:01.088Z,61.52
2017-10-06T11:11:28.578Z,62.34
2017-10-06T11:13:56.087Z,62.01
2017-10-06T11:16:23.587Z,62.52
2017-10-06T11:18:51.059Z,63.80
2017-10-06T11:21:18.596Z,64.48
2017-10-06T11:23:46.082Z,65.75
2017-10-06T11:26:13.551Z,64.59
2017-10-06T11:28:41.092Z,64.46
2017-10-06T11:31:08.656Z,64.84
2017-10-06T11:33:36.142Z,65.93
2017-10-06T11:36:03.638Z,66.71
2017-10-06T11:38:31.138Z,67.59
2017-10-06T11:40:58.631Z,68.62
2017-10-06T11:43:26.096Z,68.34
2017-10-06T11:45:53.600Z,69.77
2017-10-06T11:48:21.079Z,69.90
2017-10-06T11:50:48.611Z,71.36
2017-10-06T11:53:16.093Z,71.20
2017-10-06T11:55:43.563Z,71.43
2017-10-06T11:58:11.044Z,71.69
2017-10-06T12:00:38.539Z,72.13
2017-10-06T12:03:06.034Z,73.31
2017-10-06T12:05:33.545Z,73.62
2017-10-06T12:08:01.032Z,73.77
2017-10-06T12:10:28.594Z,75.74
2017-10-06T12:12:56.065Z,76.29
2017-10-06T12:15:23.582Z,76.65
2017-10-06T12:17:51.101Z,77.28
2017-10-06T12:20:18.575Z,77.90
2017-10-06T12:22:46.087Z,78.82
2017-10-06T12:25:13.556Z,80.32
2017-10-06T12:27:41.019Z,80.61
2017-10-06T12:30:08.505Z,80.16
2017-10-06T12:32:35.993Z,81.40
2017-10-06T12:35:03.483Z,82.22
2017-10-06T12:37:30.938Z,80.24
2017-10-06T12:39:58.568Z,81.05
2017-10-06T12:42:26.048Z,81.36
2017-10-06T12:44:53.575Z,80.93
2017-10-06T12:47:21.358Z,80.10
2017-10-06T12:49:48.862Z,79.12
2017-10-06T12:52:16.337Z,76.96
2017-10-06T12:54:43.799Z,75.90
2017-10-06T12:57:11.257Z,75.68
2017-10-06T12:59:39.092Z,74.27
2017-10-06T13:02:06.583Z,74.97
2017-10-06T13:04:34.074Z,74.89
2017-10-06T13:07:01.549Z,74.17
2017-10-06T13:09:29.017Z,75.53
2017-10-06T13:11:56.558Z,75.63
2017-10-06T13:14:24.038Z,74.65
2017-10-06T13:16:51.542Z,74.41
2017-10-06T13:19:19.050Z,73.92
2017-10-06T13:21:46.514Z,74.66
2017-10-06T13:24:13.993Z,73.67
2017-10-06T13:26:41.503Z,73.84
2017-10-06T13:29:09.074Z,72.84
2017-10-06T13:31:36.626Z,72.93
2017-10-06T13:34:04.141Z,70.68
2017-10-06T13:36:31.624Z,71.35
2017-10-06T13:38:59.070Z,69.24
2017-10-06T13:41:26.557Z,69.62
2017-10-06T13:43:54.027Z,67.83
2017-10-06T13:46:21.536Z,66.61
2017-10-06T13:48:49.000Z,66.30
2017-10-06T13:51:16.577Z,66.12
2017-10-06T13:53:44.060Z,67.04
2017-10-06T13:56:11.533Z,67.14
2017-10-06T13:58:39.036Z,67.38
2017-10-06T14:01:06.535Z,68.26
2017-10-06T14:03:34.068Z,69.58
2017-10-06T14:06:01.541Z,70.74
2017-10-06T14:08:29.028Z,70.86
2017-10-06T14:10:56.577Z,73.02
2017-10-06T14:13:24.083Z,73.02
2017-10-06T14:15:51.623Z,74.04
2017-10-06T14:18:19.092Z,71.91
2017-10-06T14:20:46.843Z,73.12
2017-10-06T14:23:14.381Z,70.09
2017-10-06T14:25:41.894Z,71.28
2017-10-06T14:28:21.081Z,70.90
2017-10-06T14:30:49.245Z,70.93
2017-10-06T14:33:16.743Z,70.72
2017-10-06T14:35:44.211Z,72.08
2017-10-06T14:38:11.788Z,72.14
2017-10-06T14:40:39.311Z,70.70
2017-10-06T14:43:07.420Z,70.38
2017-10-06T14:45:34.901Z,71.95
2017-10-06T14:48:02.356Z,71.02
2017-10-06T14:50:29.876Z,71.50
2017-10-06T14:52:57.355Z,71.77
2017-10-06T14:55:24.925Z,71.48
2017-10-06T14:57:52.414Z,69.34
2017-10-06T15:00:19.875Z,69.04
2017-10-06T15:02:47.426Z,68.87
2017-10-06T15:05:14.956Z,70.09
2017-10-06T15:07:42.424Z,70.14
2017-10-06T15:10:10.030Z,71.22
2017-10-06T15:12:37.517Z,70.79
2017-10-06T15:15:06.015Z,70.34
2017-10-06T15:17:33.510Z,70.43
2017-10-06T15:20:01.044Z,71.27
2017-10-06T15:22:34.615Z,70.66
2017-10-06T15:25:03.637Z,70.30
2017-10-06T15:27:31.115Z,70.08
2017-10-06T15:29:58.597Z,69.24
2017-10-06T15:32:26.069Z,69.67
2017-10-06T15:34:53.645Z,68.17
2017-10-06T15:37:21.133Z,68.32
2017-10-06T15:39:48.610Z,68.73
2017-10-06T15:42:16.104Z,68.16
2017-10-06T15:44:43.631Z,68.24
2017-10-06T15:47:11.104Z,69.53
2017-10-06T15:49:38.568Z,69.70
2017-10-06T15:52:06.028Z,70.40
2017-10-06T15:54:33.521Z,70.18
2017-10-06T15:57:00.986Z,68.76
2017-10-06T15:59:28.502Z,68.74
2017-10-06T16:01:56.043Z,69.77
2017-10-06T16:04:23.593Z,70.00
2017-10-06T16:06:51.107Z,69.93
2017-10-06T16:09:18.578Z,70.44
2017-10-06T16:11:46.032Z,69.88
2017-10-06T16:14:13.540Z,70.16
2017-10-06T16:16:41.025Z,70.54
2017-10-06T16:19:08.566Z,70.54
2017-10-06T16:21:36.146Z,70.76
2017-10-06T16:24:03.628Z,70.65
2017-10-06T16:26:31.182Z,70.96
2017-10-06T16:28:58.681Z,70.70
2017-10-06T16:31:26.182Z,71.06
2017-10-06T16:33:57.743Z,70.80
2017-10-06T16:36:25.274Z,70.69
2017-10-06T16:38:52.751Z,71.60
2017-10-06T16:41:20.318Z,71.64
2017-10-06T16:43:47.872Z,71.01
2017-10-06T16:46:15.338Z,71.11
2017-10-06T16:48:42.826Z,71.51
2017-10-06T16:51:10.302Z,71.99
2017-10-06T16:53:37.776Z,72.25
2017-10-06T16:56:05.290Z,72.35
2017-10-06T16:58:32.770Z,73.02
2017-10-06T17:01:00.239Z,72.73
2017-10-06T17:03:27.750Z,73.36
2017-10-06T17:05:55.251Z,72.71
2017-10-06T17:08:22.776Z,72.61
2017-10-06T17:10:50.246Z,72.45
2017-10-06T17:13:17.726Z,73.04
2017-10-06T17:15:45.182Z,72.58
2017-10-06T17:18:12.649Z,72.88
2017-10-06T17:20:40.167Z,72.93
2017-10-06T17:23:07.640Z,72.86
2017-10-06T17:25:35.118Z,72.93
2017-10-06T17:28:02.579Z,72.39
2017-10-06T17:30:30.061Z,72.54
2017-10-06T17:32:57.626Z,72.64
2017-10-06T17:35:25.123Z,72.32
2017-10-06T17:37:52.631Z,72.48
2017-10-06T17:40:20.252Z,72.70
2017-10-06T17:42:47.774Z,72.60
2017-10-06T17:45:15.263Z,72.87
2017-10-06T17:47:42.763Z,73.52
2017-10-06T17:50:10.236Z,73.49
2017-10-06T17:52:37.720Z,73.36
2017-10-06T17:55:05.298Z,73.26
2017-10-06T17:57:32.776Z,73.75
2017-10-06T18:00:00.243Z,73.85
2017-10-06T18:02:27.713Z,74.20
2017-10-06T18:04:55.182Z,74.31
2017-10-06T18:07:22.749Z,74.26
2017-10-06T18:09:50.228Z,74.29
2017-10-06T18:12:17.721Z,74.96
2017-10-06T18:14:45.240Z,74.88
2017-10-06T18:17:12.716Z,75.07
2017-10-06T18:19:40.203Z,75.11
2017-10-06T18:22:08.642Z,75.19
2017-10-06T18:24:36.113Z,75.51
2017-10-06T18:27:03.623Z,75.85
2017-10-06T18:29:31.191Z,76.02
2017-10-06T18:31:58.700Z,75.88
2017-10-06T18:34:26.283Z,76.37
2017-10-06T18:36:53.860Z,76.39
2017-10-06T18:39:21.643Z,76.28
2017-10-06T18:41:49.218Z,76.60
2017-10-06T18:44:16.754Z,76.48
2017-10-06T18:46:44.260Z,76.35
2017-10-06T18:49:11.740Z,76.69
2017-10-06T18:51:39.252Z,76.67
2017-10-06T18:54:06.710Z,76.90
2017-10-06T18:56:34.310Z,76.90
2017-10-06T18:59:01.828Z,77.35
2017-10-06T19:01:29.314Z,77.37
2017-10-06T19:03:56.853Z,77.52
2017-10-06T19:06:24.324Z,77.67
2017-10-06T19:08:51.874Z,77.80
2017-10-06T19:11:19.387Z,77.83
2017-10-06T19:13:46.851Z,77.96
2017-10-06T19:16:14.408Z,78.25
2017-10-06T19:18:41.927Z,78.54
2017-10-06T19:21:09.432Z,78.59
2017-10-06T19:23:37.025Z,78.79
2017-10-06T19:26:04.511Z,78.68
2017-10-06T19:28:31.997Z,78.93
2017-10-06T19:30:59.574Z,79.13
2017-10-06T19:33:27.130Z,79.04
2017-10-06T19:35:54.598Z,79.10
2017-10-06T19:38:22.176Z,79.55
2017-10-06T19:40:49.721Z,79.20
2017-10-06T19:43:17.206Z,79.29
2017-10-06T19:45:44.682Z,79.50
2017-10-06T19:48:12.144Z,79.54
2017-10-06T19:50:39.624Z,79.45
2017-10-06T19:53:07.100Z,79.60
2017-10-06T19:55:34.696Z,79.68
2017-10-06T20:05:41.428Z,80.10
2017-10-06T20:08:08.972Z,80.45
2017-10-06T20:10:36.458Z,80.43
2017-10-06T20:25:50.238Z,80.66
2017-10-06T20:33:24.047Z,80.94
2017-10-06T20:35:51.503Z,80.93
2017-10-06T20:38:18.995Z,80.97
2017-10-06T20:56:03.525Z,78.39
2017-10-06T21:01:04.036Z,77.70
2017-10-06T21:06:04.515Z,77.74
2017-10-06T21:13:37.995Z,77.53
2017-10-06T21:16:07.257Z,77.74
2017-10-06T21:21:07.899Z,78.00
2017-10-06T21:26:09.642Z,76.60
2017-10-06T21:33:42.913Z,75.52
2017-10-06T21:38:43.315Z,75.62
2017-10-06T21:41:10.806Z,75.31
2017-10-06T21:43:38.279Z,75.28
2017-10-06T21:46:05.852Z,75.04
2017-10-06T21:53:38.939Z,75.31
2017-10-06T21:56:06.420Z,74.90
2017-10-06T21:58:33.958Z,75.30
2017-10-06T22:01:01.461Z,75.09
2017-10-06T22:06:01.833Z,75.14
2017-10-06T22:08:29.611Z,75.31
2017-10-06T22:33:56.406Z,75.63
2017-10-06T22:38:57.159Z,75.95
2017-10-06T22:54:10.381Z,76.90
2017-10-06T22:56:37.849Z,77.44
2017-10-06T23:01:38.038Z,76.61
2017-10-06T23:04:05.498Z,75.07
2017-10-06T23:06:33.097Z,75.85
2017-10-06T23:11:33.422Z,76.00
2017-10-06T23:14:00.928Z,76.54
2017-10-06T23:21:34.214Z,76.32
2017-10-06T23:34:15.750Z,77.64
2017-10-06T23:36:43.240Z,77.47
2017-10-06T23:39:10.756Z,77.55
2017-10-06T23:49:16.594Z,78.55
2017-10-06T23:51:44.467Z,79.05
